Hampton Beach, New Hampshire
Current Conditions -  °F | °C
As of 4:58 AM on Sunday 21 Dec 2014 (Local Time) from KPSM Reporting Station
Overcast Overcast  
Wind Chill: 17°   Ceiling: 4500
Heat Index: 24°   Visibility: 10mi
Dew Point: 19°   Wind: 6mph
Humidity: 82%   Direction: 350°N
Pressure: 30.31"   Gusts: NA
Location:  42.9284°N, 70.8566°W
Report Text: KPSM 210958Z 35005KT 10SM OVC045 M04/M07 A3031 RMK AO2A SLP269 T10451071
Loading
Personal Weather Stations






























Interactive Weather Map New forecast layout! Learn more

10-Day Weather Forecast

Advertisements
Track Severe Weather on mobile